createdAt,value
2018-09-18T00:04:20.383Z,2.90
2018-09-18T00:09:24.289Z,2.93
2018-09-18T00:14:27.781Z,3.60
2018-09-18T00:19:31.471Z,3.30
2018-09-18T00:24:35.211Z,3.13
2018-09-18T00:29:39.635Z,2.60
2018-09-18T00:34:43.435Z,3.23
2018-09-18T00:39:48.932Z,3.10
2018-09-18T00:44:52.519Z,2.90
2018-09-18T00:49:56.031Z,2.80
2018-09-18T00:54:59.672Z,3.30
2018-09-18T01:00:03.511Z,2.83
2018-09-18T01:05:07.271Z,3.73
2018-09-18T01:10:10.912Z,4.07
2018-09-18T01:15:14.905Z,3.87
2018-09-18T01:20:18.428Z,3.80
2018-09-18T01:25:21.967Z,3.73
2018-09-18T01:30:25.574Z,3.77
2018-09-18T01:35:29.796Z,4.27
2018-09-18T01:40:33.336Z,4.17
2018-09-18T01:45:36.904Z,4.03
2018-09-18T01:50:40.500Z,3.60
2018-09-18T01:55:44.371Z,4.10
2018-09-18T02:00:47.974Z,3.77
2018-09-18T02:05:51.619Z,4.20
2018-09-18T02:10:55.282Z,5.10
2018-09-18T02:15:59.039Z,5.17
2018-09-18T02:21:03.249Z,4.17
2018-09-18T02:26:06.971Z,4.87
2018-09-18T02:31:10.799Z,3.87
2018-09-18T02:36:14.720Z,4.37
2018-09-18T02:41:18.403Z,4.80
2018-09-18T02:46:22.350Z,4.70
2018-09-18T02:51:26.094Z,4.47
2018-09-18T02:56:29.916Z,4.30
2018-09-18T03:01:33.575Z,5.00
2018-09-18T03:06:37.212Z,5.17
2018-09-18T03:11:40.765Z,4.93
2018-09-18T03:16:44.519Z,4.73
2018-09-18T03:21:48.160Z,4.43
2018-09-18T03:26:52.110Z,5.70
2018-09-18T03:31:55.756Z,5.33
2018-09-18T03:36:59.550Z,4.67
2018-09-18T03:42:03.349Z,4.37
2018-09-18T03:47:07.025Z,4.80
2018-09-18T03:52:10.571Z,5.00
2018-09-18T03:57:14.103Z,5.00
2018-09-18T04:02:17.931Z,4.57
2018-09-18T04:07:21.442Z,5.00
2018-09-18T04:12:24.979Z,5.37
2018-09-18T04:17:30.166Z,5.97
2018-09-18T04:22:34.037Z,5.53
2018-09-18T04:27:37.732Z,4.43
2018-09-18T04:32:41.280Z,5.80
2018-09-18T04:37:44.902Z,4.80
2018-09-18T04:42:48.589Z,5.43
2018-09-18T04:47:52.117Z,5.60
2018-09-18T04:52:55.977Z,5.17
2018-09-18T04:57:59.745Z,5.43
2018-09-18T05:03:03.666Z,5.30
2018-09-18T05:08:20.877Z,5.43
2018-09-18T05:13:24.607Z,5.33
2018-09-18T05:18:28.370Z,4.90
2018-09-18T05:23:32.089Z,5.13
2018-09-18T05:28:35.664Z,5.87
2018-09-18T05:33:39.719Z,5.73
2018-09-18T05:38:43.514Z,5.33
2018-09-18T05:43:47.433Z,5.07
2018-09-18T05:48:52.813Z,6.07
2018-09-18T05:53:56.461Z,5.43
2018-09-18T05:59:00.186Z,5.50
2018-09-18T06:04:04.124Z,6.37
2018-09-18T06:09:10.431Z,6.40
2018-09-18T06:14:14.188Z,6.53
2018-09-18T06:19:18.044Z,5.30
2018-09-18T06:24:21.813Z,5.87
2018-09-18T06:29:25.443Z,5.97
2018-09-18T06:34:29.176Z,4.83
2018-09-18T06:39:39.341Z,4.50
2018-09-18T06:44:43.155Z,3.85
2018-09-18T06:49:46.634Z,4.20
2018-09-18T06:54:50.365Z,3.85
2018-09-18T06:59:54.156Z,4.50
2018-09-18T07:04:57.772Z,4.90
2018-09-18T07:10:01.425Z,5.87
2018-09-18T07:15:05.350Z,6.28
2018-09-18T07:20:09.012Z,5.65
2018-09-18T07:25:12.524Z,5.90
2018-09-18T07:30:16.018Z,6.15
2018-09-18T07:35:19.569Z,5.45
2018-09-18T07:40:23.558Z,5.37
2018-09-18T07:45:27.142Z,5.08
2018-09-18T07:50:30.831Z,5.53
2018-09-18T07:55:34.790Z,5.75
2018-09-18T08:00:38.765Z,6.17
2018-09-18T08:05:43.261Z,5.37
2018-09-18T08:10:46.867Z,5.83
2018-09-18T08:15:50.404Z,5.60
2018-09-18T08:20:54.149Z,5.30
2018-09-18T08:25:57.979Z,6.28
2018-09-18T08:31:01.736Z,6.30
2018-09-18T08:36:05.667Z,5.87
2018-09-18T08:41:09.326Z,6.00
2018-09-18T08:46:13.477Z,4.60
2018-09-18T08:51:16.945Z,6.00
2018-09-18T08:56:20.696Z,5.08
2018-09-18T09:01:24.521Z,5.47
2018-09-18T09:06:28.278Z,5.37
2018-09-18T09:11:32.093Z,5.20
2018-09-18T09:16:35.991Z,5.47
2018-09-18T09:21:40.100Z,6.05
2018-09-18T09:26:43.972Z,5.80
2018-09-18T09:31:47.452Z,4.15
2018-09-18T09:36:51.119Z,3.95
2018-09-18T09:41:54.905Z,4.37
2018-09-18T09:46:58.585Z,4.55
2018-09-18T09:52:02.298Z,4.28
2018-09-18T09:57:06.351Z,5.22
2018-09-18T10:02:16.221Z,4.72
2018-09-18T10:07:19.744Z,5.60
2018-09-18T10:12:23.277Z,5.72
2018-09-18T10:17:26.881Z,5.22
2018-09-18T10:22:30.410Z,4.40
2018-09-18T10:27:34.199Z,4.33
2018-09-18T10:32:38.017Z,3.92
2018-09-18T10:37:41.776Z,4.28
2018-09-18T10:42:45.418Z,4.60
2018-09-18T10:47:49.110Z,3.65
2018-09-18T10:52:52.784Z,4.40
2018-09-18T10:57:56.296Z,3.50
2018-09-18T11:02:59.811Z,3.45
2018-09-18T11:08:03.518Z,3.52
2018-09-18T11:13:07.345Z,3.58
2018-09-18T11:18:11.576Z,3.42
2018-09-18T11:23:15.391Z,3.98
2018-09-18T11:28:19.368Z,3.77
2018-09-18T11:33:23.870Z,4.25
2018-09-18T11:38:27.417Z,4.37
2018-09-18T11:43:30.942Z,4.20
2018-09-18T11:48:34.586Z,4.25
2018-09-18T11:53:38.296Z,4.30
2018-09-18T11:58:42.154Z,3.87
2018-09-18T12:03:46.258Z,3.10
2018-09-18T12:08:50.048Z,3.47
2018-09-18T12:13:53.496Z,3.22
2018-09-18T12:18:56.994Z,3.47
2018-09-18T12:24:00.508Z,3.77
2018-09-18T12:29:04.162Z,4.03
2018-09-18T12:34:08.099Z,3.75
2018-09-18T12:39:11.688Z,3.40
2018-09-18T12:44:15.507Z,3.80
2018-09-18T12:49:19.380Z,2.85
2018-09-18T12:54:22.935Z,3.00
2018-09-18T12:59:26.771Z,3.10
2018-09-18T13:04:30.086Z,3.45
2018-09-18T13:09:33.607Z,2.75
2018-09-18T13:14:37.168Z,2.85
2018-09-18T13:19:41.049Z,3.00
2018-09-18T13:24:44.881Z,3.00
2018-09-18T13:29:48.714Z,3.30
2018-09-18T13:34:52.400Z,2.92
2018-09-18T13:39:56.114Z,3.08
2018-09-18T13:44:59.846Z,2.85
2018-09-18T13:50:03.523Z,3.30
2018-09-18T13:55:07.325Z,3.10
2018-09-18T14:00:10.887Z,3.52
2018-09-18T14:05:14.535Z,3.20
2018-09-18T14:10:18.370Z,3.30
2018-09-18T14:15:22.204Z,3.27
2018-09-18T14:20:26.918Z,3.60
2018-09-18T14:25:30.714Z,3.27
2018-09-18T14:30:34.521Z,2.77
2018-09-18T14:35:38.211Z,2.95
2018-09-18T14:40:42.658Z,3.42
2018-09-18T14:45:46.682Z,3.20
2018-09-18T14:50:50.468Z,3.25
2018-09-18T14:55:54.171Z,3.25
2018-09-18T15:00:58.662Z,3.02
2018-09-18T15:06:02.260Z,3.20
2018-09-18T15:11:06.387Z,3.00
2018-09-18T15:16:10.418Z,3.52
2018-09-18T15:21:14.162Z,4.25
2018-09-18T15:26:17.977Z,4.45
2018-09-18T15:31:21.809Z,3.98
2018-09-18T15:36:26.092Z,3.25
2018-09-18T15:41:29.969Z,3.40
2018-09-18T15:46:33.789Z,3.20
2018-09-18T15:51:37.610Z,3.20
2018-09-18T15:56:43.961Z,2.55
2018-09-18T16:01:47.789Z,2.80
2018-09-18T16:06:51.676Z,2.52
2018-09-18T16:11:55.371Z,2.60
2018-09-18T16:16:59.438Z,2.90
2018-09-18T16:22:03.355Z,3.08
2018-09-18T16:27:06.997Z,2.80
2018-09-18T16:32:11.418Z,2.33
2018-09-18T16:37:15.031Z,2.98
2018-09-18T16:42:18.766Z,3.17
2018-09-18T16:47:24.322Z,2.45
2018-09-18T16:52:28.761Z,2.70
2018-09-18T16:57:32.835Z,3.08
2018-09-18T17:02:36.570Z,2.87
2018-09-18T17:07:40.417Z,3.05
2018-09-18T17:12:44.228Z,3.22
2018-09-18T17:17:48.052Z,3.05
2018-09-18T17:22:51.860Z,2.58
2018-09-18T17:27:56.005Z,2.27
2018-09-18T17:33:00.012Z,1.75
2018-09-18T17:38:03.726Z,1.90
2018-09-18T17:43:07.462Z,1.92
2018-09-18T17:48:11.200Z,1.82
2018-09-18T17:53:15.825Z,1.10
2018-09-18T17:58:20.132Z,0.90
2018-09-18T18:03:23.985Z,0.60
2018-09-18T18:08:27.952Z,1.30
2018-09-18T18:13:31.470Z,0.80
2018-09-18T18:18:35.185Z,1.10
2018-09-18T18:23:39.142Z,2.00
2018-09-18T18:28:43.013Z,1.70
2018-09-18T18:33:46.920Z,1.63
2018-09-18T18:38:50.733Z,1.43
2018-09-18T18:43:54.893Z,1.00
2018-09-18T18:48:58.598Z,1.00
2018-09-18T18:54:02.228Z,1.10
2018-09-18T18:59:06.180Z,1.40
2018-09-18T19:04:09.920Z,1.07
2018-09-18T19:09:14.627Z,1.00
2018-09-18T19:14:18.584Z,0.93
2018-09-18T19:19:22.458Z,1.33
2018-09-18T19:24:26.212Z,1.30
2018-09-18T19:29:29.772Z,1.40
2018-09-18T19:34:33.367Z,1.50
2018-09-18T19:39:37.066Z,1.33
2018-09-18T19:44:40.813Z,1.47
2018-09-18T19:49:44.629Z,1.50
2018-09-18T19:54:48.119Z,1.50
2018-09-18T19:59:52.210Z,1.50
2018-09-18T20:04:55.944Z,1.93
2018-09-18T20:09:59.748Z,1.37
2018-09-18T20:15:03.632Z,2.30
2018-09-18T20:20:07.549Z,1.40
2018-09-18T20:25:11.232Z,1.80
2018-09-18T20:30:14.784Z,1.83
2018-09-18T20:35:18.376Z,1.83
2018-09-18T20:40:21.905Z,2.10
2018-09-18T20:45:25.394Z,1.73
2018-09-18T20:50:29.075Z,2.00
2018-09-18T20:55:33.776Z,1.83
2018-09-18T21:00:37.645Z,1.77
2018-09-18T21:05:56.772Z,1.80
2018-09-18T21:11:00.639Z,1.97
2018-09-18T21:16:04.577Z,2.20
2018-09-18T21:21:08.342Z,2.30
2018-09-18T21:26:19.397Z,2.13
2018-09-18T21:31:23.025Z,1.87
2018-09-18T21:36:26.657Z,2.43
2018-09-18T21:41:30.314Z,2.40
2018-09-18T21:46:34.300Z,2.80
2018-09-18T21:51:38.082Z,2.70
2018-09-18T21:56:41.895Z,2.57
2018-09-18T22:01:45.677Z,2.33
2018-09-18T22:06:49.686Z,2.40
2018-09-18T22:11:53.215Z,2.40
2018-09-18T22:16:56.682Z,2.37
2018-09-18T22:22:00.302Z,2.70
2018-09-18T22:27:03.871Z,2.43
2018-09-18T22:32:07.656Z,2.47
2018-09-18T22:37:11.567Z,2.10
2018-09-18T22:42:15.294Z,2.57
2018-09-18T22:47:19.059Z,2.47
2018-09-18T22:52:22.800Z,2.60
2018-09-18T22:57:26.448Z,2.57
2018-09-18T23:02:29.952Z,2.80
2018-09-18T23:07:33.558Z,2.83
2018-09-18T23:12:37.057Z,3.03
2018-09-18T23:17:40.582Z,3.27
2018-09-18T23:22:44.323Z,3.77
2018-09-18T23:27:47.871Z,4.03
2018-09-18T23:32:51.629Z,3.07
2018-09-18T23:37:55.472Z,2.70
2018-09-18T23:42:59.243Z,2.63
2018-09-18T23:48:02.986Z,2.90
2018-09-18T23:53:06.777Z,3.00
2018-09-18T23:58:10.568Z,3.00
